createdAt,value
2022-10-08T00:01:16.911Z,8.67
2022-10-08T00:03:47.870Z,8.40
2022-10-08T00:06:21.616Z,10.30
2022-10-08T00:08:55.515Z,9.47
2022-10-08T00:11:29.801Z,10.40
2022-10-08T00:13:56.988Z,8.63
2022-10-08T00:16:34.452Z,8.77
2022-10-08T00:19:05.867Z,7.83
2022-10-08T00:21:36.429Z,7.60
2022-10-08T00:24:05.920Z,7.53
2022-10-08T00:26:39.842Z,7.60
2022-10-08T00:29:13.440Z,7.90
2022-10-08T00:31:43.582Z,7.50
2022-10-08T00:34:16.551Z,7.73
2022-10-08T00:36:43.221Z,7.53
2022-10-08T00:39:14.960Z,7.37
2022-10-08T00:41:44.138Z,7.50
2022-10-08T00:45:12.780Z,8.03
2022-10-08T00:47:53.313Z,8.20
2022-10-08T00:50:30.214Z,8.83
2022-10-08T00:53:07.336Z,8.50
2022-10-08T00:55:42.482Z,8.10
2022-10-08T00:58:19.456Z,7.87
2022-10-08T01:00:47.500Z,7.57
2022-10-08T01:03:14.316Z,7.37
2022-10-08T01:06:29.837Z,8.50
2022-10-08T01:09:22.579Z,8.20
2022-10-08T01:12:29.996Z,8.57
2022-10-08T01:15:13.684Z,9.20
2022-10-08T01:18:16.439Z,7.80
2022-10-08T01:27:30.441Z,7.17
2022-10-08T01:30:04.960Z,7.90
2022-10-08T01:33:02.993Z,7.87
2022-10-08T01:35:33.931Z,8.10
2022-10-08T01:38:07.193Z,9.63
2022-10-08T01:40:38.455Z,8.63
2022-10-08T01:43:10.306Z,9.23
2022-10-08T01:45:43.263Z,8.83
2022-10-08T01:48:21.546Z,10.23
2022-10-08T01:51:14.130Z,10.13
2022-10-08T01:53:45.839Z,10.57
2022-10-08T01:56:19.120Z,10.27
2022-10-08T01:59:05.352Z,8.17
2022-10-08T02:02:14.590Z,8.23
2022-10-08T02:04:41.787Z,7.90
2022-10-08T02:07:20.107Z,8.03
2022-10-08T02:09:52.123Z,8.17
2022-10-08T02:12:22.208Z,7.10
2022-10-08T02:14:54.017Z,8.40
2022-10-08T02:18:40.038Z,7.60
2022-10-08T02:21:21.502Z,7.53
2022-10-08T02:24:09.571Z,7.10
2022-10-08T02:26:46.515Z,7.17
2022-10-08T02:29:43.020Z,8.27
2022-10-08T02:32:37.863Z,8.43
2022-10-08T02:36:16.662Z,8.47
2022-10-08T02:38:58.692Z,7.83
2022-10-08T02:41:43.736Z,8.80
2022-10-08T02:44:19.611Z,9.37
2022-10-08T02:46:51.831Z,8.60
2022-10-08T02:49:27.350Z,8.47
2022-10-08T02:51:57.852Z,8.53
2022-10-08T02:54:24.751Z,8.40
2022-10-08T02:57:25.400Z,8.20
2022-10-08T02:59:52.457Z,8.20
2022-10-08T03:02:41.197Z,8.33
2022-10-08T03:05:18.439Z,8.20
2022-10-08T03:07:48.135Z,8.23
2022-10-08T03:10:14.643Z,8.67
2022-10-08T03:12:41.484Z,8.63
2022-10-08T03:15:10.945Z,8.57
2022-10-08T03:17:43.966Z,8.90
2022-10-08T03:20:12.068Z,8.63
2022-10-08T03:22:39.696Z,9.23
2022-10-08T03:25:06.473Z,9.57
2022-10-08T03:27:34.453Z,9.30
2022-10-08T03:30:01.533Z,8.40
2022-10-08T03:32:28.089Z,8.87
2022-10-08T03:34:54.574Z,8.57
2022-10-08T03:37:21.089Z,8.60
2022-10-08T03:39:47.572Z,7.97
2022-10-08T03:42:14.072Z,8.43
2022-10-08T03:44:40.568Z,8.60
2022-10-08T03:47:07.055Z,7.50
2022-10-08T03:49:33.537Z,8.13
2022-10-08T03:52:00.019Z,7.77
2022-10-08T03:54:26.535Z,9.13
2022-10-08T03:56:53.028Z,8.80
2022-10-08T03:59:19.619Z,9.47
2022-10-08T04:01:46.157Z,8.23
2022-10-08T04:04:12.657Z,8.50
2022-10-08T04:06:39.137Z,8.77
2022-10-08T04:09:05.620Z,8.63
2022-10-08T04:11:32.070Z,8.23
2022-10-08T04:14:00.341Z,9.00
2022-10-08T04:16:26.887Z,8.50
2022-10-08T04:18:53.378Z,8.50
2022-10-08T04:21:20.488Z,7.83
2022-10-08T04:23:49.363Z,8.03
2022-10-08T04:26:16.355Z,7.90
2022-10-08T04:28:44.479Z,7.87
2022-10-08T04:31:20.929Z,7.67
2022-10-08T04:33:47.622Z,8.30
2022-10-08T04:36:18.384Z,7.80
2022-10-08T04:38:45.930Z,9.13
2022-10-08T04:41:26.637Z,8.47
2022-10-08T04:43:58.916Z,8.90
2022-10-08T04:46:25.645Z,9.70
2022-10-08T04:48:55.035Z,9.27
2022-10-08T04:51:24.641Z,9.90
2022-10-08T04:53:54.263Z,9.97
2022-10-08T04:56:28.884Z,10.03
2022-10-08T04:58:57.438Z,9.43
2022-10-08T05:01:27.240Z,9.13
2022-10-08T05:03:56.133Z,8.80
2022-10-08T05:06:29.348Z,9.07
2022-10-08T05:08:59.091Z,8.60
2022-10-08T05:11:26.692Z,9.10
2022-10-08T05:13:55.228Z,9.00
2022-10-08T05:16:22.765Z,9.37
2022-10-08T05:18:52.589Z,9.13
2022-10-08T05:21:23.651Z,9.80
2022-10-08T05:24:06.477Z,9.23
2022-10-08T05:29:33.675Z,10.60
2022-10-08T05:32:00.163Z,9.80
2022-10-08T05:34:26.656Z,10.17
2022-10-08T05:36:53.171Z,9.33
2022-10-08T05:39:19.723Z,9.00
2022-10-08T05:41:46.219Z,8.73
2022-10-08T05:44:12.853Z,8.43
2022-10-08T05:46:39.692Z,8.40
2022-10-08T05:49:16.335Z,9.20
2022-10-08T05:51:42.825Z,8.73
2022-10-08T05:54:09.277Z,9.13
2022-10-08T05:56:35.760Z,9.33
2022-10-08T05:59:02.242Z,8.90
2022-10-08T06:01:32.188Z,8.80
2022-10-08T06:04:08.088Z,8.50
2022-10-08T06:06:37.322Z,8.50
2022-10-08T06:09:05.027Z,8.53
2022-10-08T06:11:35.497Z,9.30
2022-10-08T06:14:02.427Z,8.60
2022-10-08T06:16:29.799Z,8.90
2022-10-08T06:18:56.377Z,8.33
2022-10-08T06:21:26.072Z,9.17
2022-10-08T06:23:56.241Z,9.20
2022-10-08T06:26:29.588Z,9.10
2022-10-08T06:28:59.501Z,9.03
2022-10-08T06:31:26.313Z,8.93
2022-10-08T06:33:57.827Z,8.43
2022-10-08T06:36:27.371Z,9.33
2022-10-08T06:39:04.506Z,8.70
2022-10-08T06:41:33.989Z,19.57
2022-10-08T06:44:06.283Z,17.83
2022-10-08T06:46:34.147Z,19.10
2022-10-08T06:49:01.616Z,20.73
2022-10-08T06:51:28.901Z,19.17
2022-10-08T06:54:01.486Z,17.17
2022-10-08T06:56:32.971Z,15.20
2022-10-08T06:58:59.450Z,13.60
2022-10-08T07:01:32.937Z,12.20
2022-10-08T07:04:01.683Z,11.03
2022-10-08T07:06:28.547Z,10.90
2022-10-08T07:08:57.904Z,11.20
2022-10-08T07:11:25.451Z,10.67
2022-10-08T07:13:53.881Z,11.43
2022-10-08T07:16:23.879Z,12.70
2022-10-08T07:18:52.938Z,13.47
2022-10-08T07:21:21.607Z,13.40
2022-10-08T07:23:49.010Z,12.40
2022-10-08T07:26:22.192Z,10.67
2022-10-08T07:29:18.892Z,10.70
2022-10-08T07:31:45.482Z,11.53
2022-10-08T07:34:13.179Z,11.30
2022-10-08T07:36:40.187Z,12.13
2022-10-08T07:39:21.125Z,10.67
2022-10-08T07:41:49.029Z,9.95
2022-10-08T07:44:16.864Z,10.43
2022-10-08T07:46:49.655Z,10.00
2022-10-08T07:49:18.188Z,9.18
2022-10-08T07:51:45.455Z,9.45
2022-10-08T07:54:16.887Z,10.07
2022-10-08T07:56:43.819Z,10.13
2022-10-08T07:59:14.221Z,9.73
2022-10-08T08:01:41.389Z,9.35
2022-10-08T08:04:09.997Z,10.13
2022-10-08T08:06:43.640Z,9.30
2022-10-08T08:09:11.262Z,9.50
2022-10-08T08:11:39.258Z,8.68
2022-10-08T08:14:05.895Z,8.45
2022-10-08T08:16:32.653Z,8.52
2022-10-08T08:19:01.415Z,8.40
2022-10-08T08:21:32.305Z,8.30
2022-10-08T08:24:05.729Z,8.45
2022-10-08T08:26:36.033Z,7.75
2022-10-08T08:29:15.880Z,7.82
2022-10-08T08:31:46.057Z,7.47
2022-10-08T08:34:23.518Z,7.55
2022-10-08T08:36:53.058Z,7.65
2022-10-08T08:39:27.774Z,8.13
2022-10-08T08:42:58.390Z,7.80
2022-10-08T08:45:46.278Z,8.18
2022-10-08T08:48:32.388Z,8.15
2022-10-08T08:50:59.781Z,7.90
2022-10-08T08:53:27.296Z,7.87
2022-10-08T08:55:58.255Z,7.82
2022-10-08T08:59:33.172Z,7.57
2022-10-08T09:02:12.683Z,7.37
2022-10-08T09:04:50.469Z,7.43
2022-10-08T09:07:24.232Z,7.45
2022-10-08T09:09:55.144Z,7.22
2022-10-08T09:12:38.740Z,7.25
2022-10-08T09:15:37.490Z,7.20
2022-10-08T09:18:04.736Z,6.70
2022-10-08T09:20:31.383Z,7.40
2022-10-08T09:22:59.631Z,6.93
2022-10-08T09:25:32.234Z,7.00
2022-10-08T09:28:03.417Z,7.05
2022-10-08T09:30:44.029Z,7.07
2022-10-08T09:33:31.598Z,6.57
2022-10-08T09:35:58.705Z,6.95
2022-10-08T09:38:37.835Z,6.85
2022-10-08T09:41:19.292Z,7.78
2022-10-08T09:44:19.775Z,6.95
2022-10-08T09:46:47.745Z,6.15
2022-10-08T09:49:37.605Z,7.10
2022-10-08T09:52:26.380Z,6.60
2022-10-08T09:55:31.397Z,6.28
2022-10-08T09:58:08.337Z,6.53
2022-10-08T10:00:38.691Z,6.20
2022-10-08T10:03:17.473Z,5.53
2022-10-08T10:05:50.956Z,5.70
2022-10-08T10:10:01.180Z,6.30
2022-10-08T10:12:41.570Z,5.93
2022-10-08T10:15:33.736Z,6.20
2022-10-08T10:18:15.311Z,5.12
2022-10-08T10:20:50.738Z,6.00
2022-10-08T10:24:33.499Z,6.03
2022-10-08T10:27:11.212Z,5.97
2022-10-08T10:30:23.083Z,5.57
2022-10-08T10:33:59.677Z,6.03
2022-10-08T10:36:33.646Z,5.87
2022-10-08T10:40:46.464Z,5.85
2022-10-08T10:43:52.918Z,5.57
2022-10-08T10:47:03.311Z,6.03
2022-10-08T10:49:38.132Z,6.07
2022-10-08T10:56:22.031Z,5.82
2022-10-08T10:59:44.543Z,5.72
2022-10-08T11:02:44.411Z,6.10
2022-10-08T11:05:26.261Z,6.00
2022-10-08T11:09:48.871Z,6.00
2022-10-08T11:12:42.936Z,6.32
2022-10-08T11:15:44.226Z,6.20
2022-10-08T11:18:26.976Z,6.00
2022-10-08T11:23:04.011Z,6.25
2022-10-08T11:26:19.060Z,6.40
2022-10-08T11:32:00.637Z,6.22
2022-10-08T11:34:34.795Z,5.80
2022-10-08T11:38:10.046Z,6.35
2022-10-08T11:40:50.380Z,6.10
2022-10-08T11:44:03.709Z,6.55
2022-10-08T11:46:35.648Z,5.90
2022-10-08T11:50:16.359Z,6.12
2022-10-08T11:52:42.878Z,6.15
2022-10-08T11:55:32.382Z,6.07
2022-10-08T11:58:08.744Z,6.20
2022-10-08T12:00:47.516Z,5.70
2022-10-08T12:03:36.788Z,6.03
2022-10-08T12:06:27.612Z,6.53
2022-10-08T12:08:57.978Z,6.25
2022-10-08T12:12:25.019Z,5.65
2022-10-08T12:14:51.517Z,6.53
2022-10-08T12:17:18.216Z,6.20
2022-10-08T12:20:02.311Z,6.50
2022-10-08T12:22:42.648Z,6.28
2022-10-08T12:25:38.104Z,7.10
2022-10-08T12:30:52.383Z,5.78
2022-10-08T12:33:19.848Z,6.35
2022-10-08T12:36:23.557Z,6.32
2022-10-08T12:39:07.284Z,6.37
2022-10-08T12:42:24.496Z,6.85
2022-10-08T12:45:25.578Z,6.43
2022-10-08T12:49:57.949Z,6.35
2022-10-08T12:52:25.494Z,7.28
2022-10-08T12:54:57.285Z,6.43
2022-10-08T12:57:37.229Z,6.90
2022-10-08T13:00:35.489Z,6.90
2022-10-08T13:03:13.823Z,6.62
2022-10-08T13:05:42.754Z,6.50
2022-10-08T13:08:37.973Z,6.25
2022-10-08T13:11:09.910Z,6.60
2022-10-08T13:13:48.681Z,6.55
2022-10-08T13:16:26.418Z,6.60
2022-10-08T13:18:57.671Z,6.40
2022-10-08T13:21:38.131Z,7.03
2022-10-08T13:25:29.894Z,6.93
2022-10-08T13:28:15.345Z,6.57
2022-10-08T13:30:46.239Z,6.40
2022-10-08T13:33:19.197Z,6.53
2022-10-08T13:35:59.955Z,6.60
2022-10-08T13:38:35.353Z,6.90
2022-10-08T13:41:05.602Z,6.90
2022-10-08T13:43:33.720Z,6.97
2022-10-08T13:46:00.948Z,7.53
2022-10-08T13:48:27.492Z,6.57
2022-10-08T13:50:54.138Z,6.15
2022-10-08T13:53:25.236Z,5.97
2022-10-08T13:55:51.899Z,6.85
2022-10-08T13:58:19.905Z,7.10
2022-10-08T14:00:47.822Z,6.47
2022-10-08T14:03:14.822Z,6.68
2022-10-08T14:05:45.530Z,6.50
2022-10-08T14:08:26.460Z,6.82
2022-10-08T14:10:57.108Z,6.72
2022-10-08T14:13:24.481Z,7.93
2022-10-08T14:15:51.003Z,6.55
2022-10-08T14:18:17.501Z,7.05
2022-10-08T14:20:44.089Z,7.72
2022-10-08T14:23:13.451Z,6.95
2022-10-08T14:25:39.946Z,8.18
2022-10-08T14:28:06.626Z,7.30
2022-10-08T14:30:33.183Z,7.60
2022-10-08T14:32:59.628Z,8.38
2022-10-08T14:35:26.115Z,7.25
2022-10-08T14:37:52.607Z,7.57
2022-10-08T14:40:21.650Z,7.70
2022-10-08T14:42:49.216Z,7.47
2022-10-08T14:45:16.027Z,7.82
2022-10-08T14:47:42.503Z,8.15
2022-10-08T14:50:09.501Z,8.43
2022-10-08T14:52:40.390Z,9.45
2022-10-08T14:55:10.016Z,8.38
2022-10-08T14:57:36.497Z,8.20
2022-10-08T15:00:04.177Z,8.43
2022-10-08T15:02:31.003Z,8.15
2022-10-08T15:04:57.481Z,8.50
2022-10-08T15:07:24.059Z,8.25
2022-10-08T15:09:50.512Z,7.50
2022-10-08T15:12:17.004Z,8.40
2022-10-08T15:14:43.534Z,7.90
2022-10-08T15:17:09.994Z,7.22
2022-10-08T15:19:36.515Z,7.90
2022-10-08T15:22:03.017Z,7.78
2022-10-08T15:24:29.593Z,8.15
2022-10-08T15:26:56.088Z,7.82
2022-10-08T15:29:22.544Z,7.62
2022-10-08T15:31:50.474Z,8.00
2022-10-08T15:34:19.846Z,7.50
2022-10-08T15:36:46.788Z,7.82
2022-10-08T15:39:18.540Z,8.15
2022-10-08T15:41:51.853Z,8.20
2022-10-08T15:44:25.596Z,7.90
2022-10-08T15:47:06.980Z,8.02
2022-10-08T15:49:42.240Z,7.62
2022-10-08T15:52:13.420Z,7.47
2022-10-08T15:54:41.299Z,8.00
2022-10-08T15:57:10.542Z,7.80
2022-10-08T15:59:37.507Z,7.15
2022-10-08T16:02:04.611Z,7.28
2022-10-08T16:04:31.512Z,7.53
2022-10-08T16:06:57.975Z,7.57
2022-10-08T16:09:24.776Z,8.20
2022-10-08T16:11:51.588Z,7.78
2022-10-08T16:14:22.338Z,7.25
2022-10-08T16:16:49.842Z,7.40
2022-10-08T16:19:25.231Z,7.40
2022-10-08T16:21:55.455Z,7.82
2022-10-08T16:24:23.057Z,7.55
2022-10-08T16:26:50.140Z,7.25
2022-10-08T16:29:18.265Z,7.47
2022-10-08T16:31:46.778Z,8.30
2022-10-08T16:34:22.982Z,7.62
2022-10-08T16:36:50.524Z,8.00
2022-10-08T16:39:21.312Z,8.15
2022-10-08T16:41:48.814Z,7.32
2022-10-08T16:44:19.025Z,7.62
2022-10-08T16:46:49.534Z,8.05
2022-10-08T16:49:26.050Z,9.07
2022-10-08T16:52:11.182Z,8.75
2022-10-08T16:54:37.954Z,8.52
2022-10-08T16:57:04.536Z,8.43
2022-10-08T16:59:31.191Z,8.02
2022-10-08T17:01:59.408Z,7.80
2022-10-08T17:04:28.436Z,7.95
2022-10-08T17:06:55.344Z,7.43
2022-10-08T17:09:21.856Z,8.27
2022-10-08T17:11:48.487Z,8.00
2022-10-08T17:14:15.163Z,9.30
2022-10-08T17:16:42.600Z,11.25
2022-10-08T17:19:09.118Z,10.60
2022-10-08T17:21:36.299Z,9.60
2022-10-08T17:24:03.189Z,11.95
2022-10-08T17:26:30.907Z,11.85
2022-10-08T17:29:03.765Z,12.25
2022-10-08T17:31:31.141Z,11.02
2022-10-08T17:33:59.120Z,11.98
2022-10-08T17:36:29.647Z,12.05
2022-10-08T17:38:59.862Z,10.68
2022-10-08T17:41:32.950Z,9.77
2022-10-08T17:44:02.725Z,9.82
2022-10-08T17:46:36.909Z,8.95
2022-10-08T17:49:03.947Z,9.35
2022-10-08T17:51:30.905Z,8.82
2022-10-08T17:54:04.236Z,9.10
2022-10-08T17:56:31.687Z,9.15
2022-10-08T17:58:59.081Z,8.95
2022-10-08T18:01:34.390Z,9.18
2022-10-08T18:04:04.391Z,9.63
2022-10-08T18:06:33.310Z,8.50
2022-10-08T18:09:04.065Z,8.50
2022-10-08T18:11:36.040Z,9.02
2022-10-08T18:14:04.599Z,9.57
2022-10-08T18:16:31.399Z,10.80
2022-10-08T18:18:58.161Z,11.12
2022-10-08T18:21:24.922Z,9.65
2022-10-08T18:23:51.968Z,10.60
2022-10-08T18:26:29.816Z,10.73
2022-10-08T18:28:59.602Z,10.80
2022-10-08T18:31:32.092Z,9.60
2022-10-08T18:34:06.207Z,10.80
2022-10-08T18:36:36.335Z,10.18
2022-10-08T18:39:07.118Z,10.43
2022-10-08T18:41:38.088Z,13.60
2022-10-08T18:44:06.078Z,11.65
2022-10-08T18:46:35.126Z,10.27
2022-10-08T18:49:02.415Z,11.95
2022-10-08T18:51:30.246Z,11.47
2022-10-08T18:53:58.733Z,11.88
2022-10-08T18:56:33.571Z,11.00
2022-10-08T18:59:03.201Z,10.82
2022-10-08T19:01:36.490Z,10.80
2022-10-08T19:04:06.804Z,10.53
2022-10-08T19:06:39.266Z,11.18
2022-10-08T19:09:06.603Z,10.45
2022-10-08T19:11:44.467Z,11.52
2022-10-08T19:14:14.934Z,13.35
2022-10-08T19:16:42.375Z,12.32
2022-10-08T19:19:24.439Z,13.07
2022-10-08T19:21:53.368Z,12.32
2022-10-08T19:24:24.686Z,10.95
2022-10-08T19:26:52.681Z,11.38
2022-10-08T19:29:23.238Z,11.68
2022-10-08T19:31:50.801Z,11.10
2022-10-08T19:34:26.106Z,10.77
2022-10-08T19:36:52.889Z,11.30
2022-10-08T19:39:26.671Z,12.90
2022-10-08T19:41:53.517Z,12.00
2022-10-08T19:44:20.839Z,11.53
2022-10-08T19:46:47.601Z,12.33
2022-10-08T19:49:14.918Z,11.77
2022-10-08T19:51:41.564Z,12.37
2022-10-08T19:54:08.127Z,11.60
2022-10-08T19:56:35.211Z,12.33
2022-10-08T19:59:01.819Z,12.60
2022-10-08T20:01:35.438Z,13.27
2022-10-08T20:04:04.272Z,12.77
2022-10-08T20:06:33.805Z,12.47
2022-10-08T20:09:02.620Z,13.37
2022-10-08T20:11:31.218Z,13.13
2022-10-08T20:13:59.354Z,13.43
2022-10-08T20:16:38.884Z,13.40
2022-10-08T20:19:19.375Z,12.37
2022-10-08T20:21:48.870Z,12.63
2022-10-08T20:24:17.730Z,12.50
2022-10-08T20:26:45.087Z,12.90
2022-10-08T20:29:19.474Z,13.53
2022-10-08T20:31:53.980Z,13.60
2022-10-08T20:34:27.930Z,12.03
2022-10-08T20:36:54.476Z,12.80
2022-10-08T20:39:22.228Z,13.32
2022-10-08T20:41:49.253Z,12.88
2022-10-08T20:44:16.095Z,13.70
2022-10-08T20:46:42.896Z,12.87
2022-10-08T20:49:11.995Z,13.60
2022-10-08T20:51:41.349Z,12.63
2022-10-08T20:54:12.119Z,12.30
2022-10-08T20:56:40.685Z,11.87
2022-10-08T20:59:09.600Z,14.70
2022-10-08T21:01:38.526Z,15.33
2022-10-08T21:04:06.937Z,14.07
2022-10-08T21:06:46.243Z,13.50
2022-10-08T21:09:15.774Z,12.50
2022-10-08T21:11:45.126Z,12.80
2022-10-08T21:14:16.934Z,13.43
2022-10-08T21:16:43.619Z,13.07
2022-10-08T21:19:18.199Z,12.97
2022-10-08T21:21:44.761Z,14.93
2022-10-08T21:24:11.297Z,12.60
2022-10-08T21:26:40.664Z,12.90
2022-10-08T21:29:11.212Z,13.27
2022-10-08T21:31:40.013Z,12.60
2022-10-08T21:34:07.311Z,12.10
2022-10-08T21:36:38.576Z,11.93
2022-10-08T21:39:07.877Z,11.83
2022-10-08T21:41:36.972Z,12.43
2022-10-08T21:44:06.825Z,11.83
2022-10-08T21:46:37.343Z,13.37
2022-10-08T21:49:12.812Z,13.57
2022-10-08T21:51:39.293Z,14.00
2022-10-08T21:54:06.894Z,16.00
2022-10-08T21:56:37.392Z,15.53
2022-10-08T21:59:06.610Z,16.93
2022-10-08T22:01:37.505Z,16.30
2022-10-08T22:04:21.437Z,20.30
2022-10-08T22:06:53.951Z,14.53
2022-10-08T22:09:31.560Z,13.33
2022-10-08T22:11:58.871Z,13.33
2022-10-08T22:14:25.688Z,13.17
2022-10-08T22:16:52.187Z,14.10
2022-10-08T22:19:18.781Z,12.33
2022-10-08T22:21:45.733Z,12.57
2022-10-08T22:24:13.018Z,13.33
2022-10-08T22:26:43.848Z,16.07
2022-10-08T22:29:10.933Z,15.73
2022-10-08T22:31:38.324Z,15.20
2022-10-08T22:34:05.287Z,15.20
2022-10-08T22:36:37.678Z,14.17
2022-10-08T22:39:04.180Z,14.17
2022-10-08T22:41:32.477Z,13.30
2022-10-08T22:43:59.938Z,13.40
2022-10-08T22:46:36.195Z,14.83
2022-10-08T22:49:07.187Z,15.70
2022-10-08T22:51:34.135Z,14.77
2022-10-08T22:54:00.650Z,16.03
2022-10-08T22:56:30.096Z,16.52
2022-10-08T22:58:58.951Z,15.67
2022-10-08T23:01:27.805Z,13.68
2022-10-08T23:03:54.766Z,13.95
2022-10-08T23:06:34.873Z,14.17
2022-10-08T23:09:07.424Z,14.23
2022-10-08T23:11:34.286Z,15.77
2022-10-08T23:14:01.608Z,13.67
2022-10-08T23:16:30.911Z,13.53
2022-10-08T23:19:05.028Z,14.90
2022-10-08T23:21:31.768Z,15.57
2022-10-08T23:23:58.862Z,15.03
2022-10-08T23:26:26.641Z,14.77
2022-10-08T23:28:56.971Z,14.13
2022-10-08T23:31:33.036Z,14.37
2022-10-08T23:34:01.171Z,14.13
2022-10-08T23:36:35.660Z,13.70
2022-10-08T23:39:02.944Z,13.20
2022-10-08T23:41:29.658Z,12.43
2022-10-08T23:43:58.143Z,12.47
2022-10-08T23:46:28.343Z,12.53
2022-10-08T23:48:55.632Z,13.02
2022-10-08T23:51:23.851Z,12.20
2022-10-08T23:53:51.826Z,12.43
2022-10-08T23:56:19.286Z,11.40
2022-10-08T23:58:46.078Z,11.02
